createdAt,value
2018-07-19T07:09:18.914Z,99.90
2018-07-19T07:11:46.818Z,99.90
2018-07-19T07:14:14.696Z,99.90
2018-07-19T07:16:42.499Z,99.90
2018-07-19T07:19:10.344Z,99.90
2018-07-19T07:21:38.179Z,99.90
2018-07-19T07:24:06.041Z,98.90
2018-07-19T07:26:33.911Z,97.20
2018-07-19T07:29:01.750Z,96.90
2018-07-19T07:31:29.607Z,95.10
2018-07-19T07:33:57.439Z,94.70
2018-07-19T07:36:25.268Z,94.20
2018-07-19T07:38:53.180Z,94.30
2018-07-19T07:41:22.924Z,92.10
2018-07-19T07:43:50.817Z,91.20
2018-07-19T07:46:19.769Z,91.50
2018-07-19T07:48:47.636Z,91.00
2018-07-19T07:51:15.515Z,90.70
2018-07-19T07:53:43.317Z,88.70
2018-07-19T07:56:11.263Z,88.10
2018-07-19T07:58:39.332Z,90.20
2018-07-19T08:01:07.246Z,91.30
2018-07-19T08:03:35.108Z,90.80
2018-07-19T08:06:03.011Z,89.80
2018-07-19T08:08:30.910Z,90.30
2018-07-19T08:10:58.774Z,90.70
2018-07-19T08:13:26.621Z,90.50
2018-07-19T08:15:54.581Z,89.20
2018-07-19T08:18:22.339Z,91.20
2018-07-19T08:20:50.209Z,90.10
2018-07-19T08:23:18.104Z,89.10
2018-07-19T08:25:45.965Z,86.00
2018-07-19T08:28:13.802Z,86.20
2018-07-19T08:30:41.683Z,86.40
2018-07-19T08:33:09.639Z,86.40
2018-07-19T08:35:37.550Z,86.10
2018-07-19T08:38:05.553Z,86.60
2018-07-19T08:40:33.448Z,84.50
2018-07-19T08:43:01.306Z,82.00
2018-07-19T08:45:29.186Z,81.70
2018-07-19T08:47:57.074Z,76.70
2018-07-19T08:50:25.945Z,76.00
2018-07-19T08:52:53.815Z,76.30
2018-07-19T08:55:21.776Z,72.50
2018-07-19T08:57:49.576Z,74.80
2018-07-19T09:00:17.411Z,74.30
2018-07-19T09:02:45.261Z,73.80
2018-07-19T09:05:13.083Z,71.60
2018-07-19T09:07:40.906Z,71.40
2018-07-19T09:10:08.828Z,69.50
2018-07-19T09:12:36.657Z,68.40
2018-07-19T09:15:04.625Z,67.00
2018-07-19T09:17:32.445Z,70.50
2018-07-19T09:20:00.286Z,67.30
2018-07-19T09:22:28.196Z,65.60
2018-07-19T09:24:56.040Z,63.10
2018-07-19T09:27:23.892Z,63.00
2018-07-19T09:29:51.809Z,62.60
2018-07-19T09:32:21.995Z,64.50
2018-07-19T09:34:49.928Z,62.10
2018-07-19T09:37:18.236Z,61.70
2018-07-19T09:39:46.200Z,60.90
2018-07-19T09:42:15.408Z,62.40
2018-07-19T09:44:43.581Z,63.20
2018-07-19T09:47:12.158Z,63.50
2018-07-19T09:49:40.071Z,63.40
2018-07-19T09:52:08.175Z,62.00
2018-07-19T09:54:47.364Z,63.60
2018-07-19T09:57:16.150Z,62.60
2018-07-19T09:59:46.072Z,60.60
2018-07-19T10:02:14.162Z,60.70
2018-07-19T10:04:42.329Z,59.30
2018-07-19T10:07:10.411Z,60.70
2018-07-19T10:09:38.411Z,59.60
2018-07-19T10:12:06.450Z,60.90
2018-07-19T10:14:34.400Z,59.70
2018-07-19T10:17:02.474Z,58.90
2018-07-19T10:19:30.575Z,58.00
2018-07-19T10:21:58.754Z,58.20
2018-07-19T10:24:26.726Z,56.70
2018-07-19T10:26:54.884Z,55.80
2018-07-19T10:29:23.287Z,53.10
2018-07-19T10:31:51.362Z,55.00
2018-07-19T10:34:19.359Z,56.30
2018-07-19T10:36:47.488Z,54.30
2018-07-19T10:39:15.493Z,56.90
2018-07-19T10:41:44.781Z,56.70
2018-07-19T10:44:12.722Z,56.80
2018-07-19T10:46:41.046Z,60.10
2018-07-19T10:49:08.920Z,61.70
2018-07-19T10:51:37.245Z,62.70
2018-07-19T10:54:05.304Z,58.70
2018-07-19T10:56:33.451Z,58.40
2018-07-19T10:59:01.637Z,58.30
2018-07-19T11:01:31.460Z,56.70
2018-07-19T11:03:59.488Z,56.50
2018-07-19T11:06:27.761Z,59.00
2018-07-19T11:08:55.807Z,58.40
2018-07-19T11:11:23.768Z,62.50
2018-07-19T11:13:52.979Z,61.10
2018-07-19T11:16:21.268Z,62.40
2018-07-19T11:18:50.341Z,60.40
2018-07-19T11:21:18.324Z,58.30
2018-07-19T11:23:46.250Z,58.50
2018-07-19T11:26:14.113Z,58.90
2018-07-19T11:28:42.253Z,59.60
2018-07-19T11:31:10.181Z,59.00
2018-07-19T11:33:38.108Z,59.70
2018-07-19T11:36:05.954Z,59.50
2018-07-19T11:38:33.803Z,58.80
2018-07-19T11:41:01.669Z,61.30
2018-07-19T11:43:29.624Z,62.30
2018-07-19T11:45:57.579Z,63.00
2018-07-19T11:48:25.440Z,63.20
2018-07-19T11:50:53.422Z,63.80
2018-07-19T11:53:21.376Z,62.40
2018-07-19T11:55:49.299Z,59.70
2018-07-19T11:58:17.196Z,59.20
2018-07-19T12:00:48.400Z,58.70
2018-07-19T12:03:16.409Z,60.00
2018-07-19T12:05:45.467Z,60.70
2018-07-19T12:08:13.353Z,61.10
2018-07-19T12:10:41.314Z,61.20
2018-07-19T12:13:09.284Z,62.30
2018-07-19T12:15:37.506Z,61.70
2018-07-19T12:18:05.578Z,62.30
2018-07-19T12:20:33.998Z,61.40
2018-07-19T12:23:02.029Z,61.40
2018-07-19T12:25:32.904Z,60.70
2018-07-19T12:28:00.802Z,61.80
2018-07-19T12:30:30.924Z,61.20
2018-07-19T12:32:59.033Z,59.10
2018-07-19T12:35:27.234Z,58.70
2018-07-19T12:37:55.425Z,58.20
2018-07-19T12:40:24.888Z,56.40
2018-07-19T12:42:52.811Z,55.40
2018-07-19T12:45:20.919Z,54.60
2018-07-19T12:47:49.669Z,53.70
2018-07-19T12:50:18.642Z,54.20
2018-07-19T12:52:47.560Z,53.20
2018-07-19T12:55:15.559Z,52.60
2018-07-19T12:57:43.972Z,51.90
2018-07-19T13:00:12.390Z,53.00
2018-07-19T13:02:40.370Z,52.60
2018-07-19T13:05:11.753Z,53.10
2018-07-19T13:07:39.745Z,54.40
2018-07-19T13:10:08.943Z,54.50
2018-07-19T13:12:37.000Z,53.90
2018-07-19T13:15:05.495Z,54.70
2018-07-19T13:17:33.768Z,55.10
2018-07-19T13:20:01.742Z,55.20
2018-07-19T13:22:29.922Z,55.90
2018-07-19T13:24:58.247Z,55.50
2018-07-19T13:27:26.404Z,55.60
2018-07-19T13:29:54.405Z,55.00
2018-07-19T13:32:23.603Z,54.30
2018-07-19T13:34:51.475Z,54.90
2018-07-19T13:37:19.513Z,54.50
2018-07-19T13:39:47.473Z,54.20
2018-07-19T13:42:17.350Z,54.00
2018-07-19T13:44:45.307Z,53.30
2018-07-19T13:47:13.261Z,52.90
2018-07-19T13:49:41.427Z,53.50
2018-07-19T13:52:09.531Z,52.80
2018-07-19T13:54:48.112Z,53.40
2018-07-19T13:57:16.367Z,53.90
2018-07-19T13:59:44.614Z,53.60
2018-07-19T14:02:13.270Z,53.70
2018-07-19T14:04:41.494Z,52.70
2018-07-19T14:07:09.651Z,52.90
2018-07-19T14:09:38.888Z,52.70
2018-07-19T14:12:07.052Z,53.10
2018-07-19T14:14:35.079Z,51.60
2018-07-19T14:17:03.231Z,50.80
2018-07-19T14:19:31.356Z,52.20
2018-07-19T14:21:59.362Z,53.00
2018-07-19T14:24:27.377Z,52.30
2018-07-19T14:26:56.417Z,52.80
2018-07-19T14:29:24.395Z,53.10
2018-07-19T14:31:56.104Z,52.70
2018-07-19T14:34:24.158Z,52.40
2018-07-19T14:36:52.244Z,53.40
2018-07-19T14:39:21.209Z,53.50
2018-07-19T14:41:49.391Z,53.10
2018-07-19T14:44:17.488Z,52.00
2018-07-19T14:46:45.472Z,52.70
2018-07-19T14:49:13.751Z,51.60
2018-07-19T14:51:41.857Z,51.20
2018-07-19T14:54:10.082Z,50.60
2018-07-19T14:56:38.240Z,51.20
2018-07-19T14:59:06.528Z,50.90
2018-07-19T15:01:34.713Z,50.10
2018-07-19T15:04:03.013Z,49.30
2018-07-19T15:06:31.154Z,49.00
2018-07-19T15:09:00.554Z,49.80
2018-07-19T15:11:28.644Z,49.40
2018-07-19T15:13:56.870Z,49.70
2018-07-19T15:16:25.008Z,49.20
2018-07-19T15:18:53.197Z,49.50
2018-07-19T15:21:21.345Z,48.70
2018-07-19T15:23:49.547Z,48.40
2018-07-19T15:26:17.734Z,48.60
2018-07-19T15:28:46.036Z,48.60
2018-07-19T15:31:14.209Z,48.40
2018-07-19T15:33:42.280Z,47.70
2018-07-19T15:36:10.344Z,46.40
2018-07-19T15:38:40.342Z,46.70
2018-07-19T15:41:08.414Z,47.20
2018-07-19T15:43:36.603Z,47.20
2018-07-19T15:46:04.744Z,47.10
2018-07-19T15:48:33.079Z,46.30
2018-07-19T15:51:01.255Z,46.70
2018-07-19T15:53:29.234Z,46.60
2018-07-19T15:55:57.431Z,46.30
2018-07-19T15:58:25.458Z,46.30
2018-07-19T16:00:53.579Z,46.80
2018-07-19T16:03:21.715Z,44.80
2018-07-19T16:05:49.993Z,45.20
2018-07-19T16:08:18.097Z,46.80
2018-07-19T16:10:47.291Z,47.60
2018-07-19T16:13:15.486Z,46.50
2018-07-19T16:15:43.401Z,44.50
2018-07-19T16:18:11.548Z,46.40
2018-07-19T16:20:39.634Z,45.20
2018-07-19T16:23:07.786Z,44.30
2018-07-19T16:25:35.877Z,44.90
2018-07-19T16:28:04.136Z,44.40
2018-07-19T16:30:32.179Z,44.70
2018-07-19T16:33:00.247Z,44.80
2018-07-19T16:35:28.448Z,45.00
2018-07-19T16:37:56.731Z,45.40
2018-07-19T16:40:24.839Z,44.80
2018-07-19T16:42:52.890Z,44.60
2018-07-19T16:45:21.156Z,44.90
2018-07-19T16:47:49.280Z,44.90
2018-07-19T16:50:17.470Z,45.60
2018-07-19T16:52:45.562Z,46.00
2018-07-19T16:55:13.657Z,45.90
2018-07-19T16:57:41.663Z,46.90
2018-07-19T17:00:10.244Z,47.50
2018-07-19T17:02:38.175Z,46.50
2018-07-19T17:05:06.081Z,46.70
2018-07-19T17:07:33.884Z,47.90
2018-07-19T17:10:01.719Z,47.90
2018-07-19T17:12:29.587Z,48.00
2018-07-19T17:14:57.411Z,46.60
2018-07-19T17:17:25.484Z,47.00
2018-07-19T17:19:53.350Z,47.70
2018-07-19T17:22:24.486Z,48.30
2018-07-19T17:24:52.371Z,48.40
2018-07-19T17:27:22.277Z,49.30
2018-07-19T17:29:50.209Z,51.10
2018-07-19T17:33:26.694Z,54.10
2018-07-19T17:35:54.556Z,55.10
2018-07-19T17:38:22.636Z,56.00
2018-07-19T17:40:50.587Z,56.70
2018-07-19T17:43:18.453Z,57.00
2018-07-19T17:45:46.337Z,57.30
2018-07-19T17:48:14.153Z,57.80
2018-07-19T17:50:42.084Z,58.10
2018-07-19T17:53:09.941Z,58.00
2018-07-19T17:55:38.035Z,58.20
2018-07-19T17:58:05.906Z,58.50
2018-07-19T18:00:34.038Z,59.10
2018-07-19T18:03:01.875Z,59.20
2018-07-19T18:05:29.915Z,59.40
2018-07-19T18:07:57.745Z,59.60
2018-07-19T18:10:25.588Z,60.40
2018-07-19T18:12:53.608Z,60.60
2018-07-19T18:15:21.463Z,61.20
2018-07-19T18:17:49.250Z,61.30
2018-07-19T18:20:17.097Z,62.10
2018-07-19T18:22:45.006Z,63.10
2018-07-19T18:25:12.808Z,63.70
2018-07-19T18:27:40.800Z,64.00
2018-07-19T18:30:09.153Z,64.60
2018-07-19T18:32:37.283Z,63.40
2018-07-19T18:35:05.111Z,62.20
2018-07-19T18:37:33.028Z,61.60
2018-07-19T18:40:00.821Z,62.60
2018-07-19T18:42:28.767Z,62.80
2018-07-19T18:44:56.708Z,63.20
2018-07-19T18:47:24.808Z,64.50
2018-07-19T18:49:52.640Z,64.20
2018-07-19T18:52:20.466Z,64.40
2018-07-19T18:54:48.293Z,65.30
2018-07-19T18:57:16.197Z,65.90
2018-07-19T18:59:44.099Z,66.70
2018-07-19T19:02:12.298Z,68.10
2018-07-19T19:04:40.228Z,69.40
2018-07-19T19:07:08.154Z,70.30
2018-07-19T19:09:35.993Z,71.00
2018-07-19T19:12:04.241Z,71.70
2018-07-19T19:14:32.269Z,72.20
2018-07-19T19:17:00.141Z,73.60
2018-07-19T19:19:28.240Z,74.50
2018-07-19T19:21:56.129Z,75.90
2018-07-19T19:24:24.201Z,77.00
2018-07-19T19:26:52.075Z,78.90
2018-07-19T19:29:20.107Z,78.90
2018-07-19T19:31:48.916Z,81.00
2018-07-19T19:34:17.069Z,81.40
2018-07-19T19:36:44.917Z,83.40
2018-07-19T19:39:13.273Z,83.50
2018-07-19T19:41:41.505Z,85.30
2018-07-19T19:44:10.038Z,87.30
2018-07-19T19:46:38.989Z,88.20
2018-07-19T19:49:06.842Z,89.40
2018-07-19T19:51:34.729Z,90.30
2018-07-19T19:54:02.537Z,90.90
2018-07-19T19:56:30.453Z,90.90
2018-07-19T19:58:58.348Z,90.60
2018-07-19T20:01:26.424Z,91.90
2018-07-19T20:03:54.243Z,92.30
2018-07-19T20:06:22.071Z,92.10
2018-07-19T20:08:49.940Z,93.40
2018-07-19T20:11:17.898Z,93.80
2018-07-19T20:13:45.924Z,94.20
2018-07-19T20:16:13.791Z,94.70
2018-07-19T20:18:41.859Z,94.40
2018-07-19T20:21:09.862Z,95.10
2018-07-19T20:23:38.818Z,96.30
2018-07-19T20:26:06.697Z,96.30
2018-07-19T20:28:34.615Z,97.10
2018-07-19T20:31:02.472Z,97.40
2018-07-19T20:33:31.408Z,97.40
2018-07-19T20:35:59.270Z,98.20
2018-07-19T20:38:27.336Z,99.20
2018-07-19T20:40:55.219Z,98.40
2018-07-19T20:43:23.234Z,99.40
2018-07-19T20:45:51.168Z,99.60
2018-07-19T20:48:29.264Z,99.90
2018-07-19T20:50:57.187Z,99.70
2018-07-19T20:53:25.197Z,99.90
2018-07-19T20:55:53.205Z,99.90
2018-07-19T20:58:21.112Z,99.90
2018-07-19T21:00:48.930Z,99.90
2018-07-19T21:03:16.929Z,99.90
2018-07-19T21:05:44.839Z,99.90
2018-07-19T21:08:12.834Z,99.90
2018-07-19T21:10:40.683Z,99.90
2018-07-19T21:13:08.812Z,99.90
